Terminal Aerodrome Forecast
Issued by NWS Newport/Morehead City, NC

Home | Current Version | Previous Version | Graphics & Text | Print | Product List | Glossary On
Versions: 1 2 3 4 5 6 7 8 9 10 11 12 13 14 15 16 17 18
778
FTUS42 KMHX 152338
TAFEWN
TAF
KEWN 152338Z 1600/1624 VRB04KT P6SM OVC080
     FM161800 VRB04KT P6SM BKN030
     FM162200 VRB04KT P6SM BKN035=

USA.gov is the U.S. government's official web portal to all federal, state and local government web resources and services.